Time;durP1;ratioP1;P1;durP2;ratioP2;P2;SDS_P1;SDS_P2;PMS_P1;PMS_P2;Temp;Humidity;BMP_temperature;BMP_pressure;BME280_temperature;BME280_humidity;BME280_pressure;Samples;Min_cycle;Max_cycle;Signal;HPM_P1;HPM_P2
2023/11/10 00:00:11;;;;;;;2.05;1.30;;;;;;;8.75;100.00;98912.41;5044241;28;20143;-74
2023/11/10 00:02:42;;;;;;;2.70;1.33;;;;;;;8.87;100.00;98919.53;5061286;28;20041;-75
2023/11/10 00:05:14;;;;;;;4.93;1.42;;;;;;;8.99;100.00;98925.81;5052958;28;20048;-74
2023/11/10 00:07:44;;;;;;;3.28;1.33;;;;;;;9.04;100.00;98921.09;5051984;28;20045;-74
2023/11/10 00:10:14;;;;;;;3.53;1.17;;;;;;;8.99;100.00;98904.69;5049040;28;20560;-74
2023/11/10 00:12:44;;;;;;;2.38;1.40;;;;;;;9.13;100.00;98912.56;5054822;28;20048;-75
2023/11/10 00:15:14;;;;;;;6.20;1.60;;;;;;;9.13;100.00;98908.13;5056674;28;20045;-74
2023/11/10 00:17:43;;;;;;;5.10;1.30;;;;;;;9.18;100.00;98915.78;5056222;28;20041;-73
2023/11/10 00:20:14;;;;;;;6.40;1.40;;;;;;;9.11;100.00;98910.06;5050403;28;20506;-74
2023/11/10 00:22:43;;;;;;;2.88;1.25;;;;;;;9.15;100.00;98913.31;5055797;28;20495;-73
2023/11/10 00:25:20;;;;;;;2.90;1.20;;;;;;;9.06;100.00;98901.56;5053134;28;20392;-74
2023/11/10 00:27:49;;;;;;;1.90;1.17;;;;;;;9.11;100.00;98906.56;5053301;28;20469;-73
2023/11/10 00:30:17;;;;;;;1.80;1.27;;;;;;;9.06;100.00;98892.81;5047269;28;20414;-73
2023/11/10 00:32:48;;;;;;;3.92;1.35;;;;;;;9.00;100.00;98901.97;5067183;28;20041;-74
2023/11/10 00:35:18;;;;;;;2.38;1.30;;;;;;;8.99;100.00;98904.69;5068709;28;20076;-74
2023/11/10 00:37:49;;;;;;;2.13;1.13;;;;;;;8.99;100.00;98891.50;5049379;28;20148;-74
2023/11/10 00:40:20;;;;;;;;;;;;;;;9.06;100.00;98896.28;5062102;28;20068;-75
2023/11/10 00:42:49;;;;;;;2.75;1.10;;;;;;;9.10;100.00;98897.81;5050308;28;19988;-73
2023/11/10 00:45:18;;;;;;;2.75;1.15;;;;;;;9.06;100.00;98887.53;5050312;28;20065;-75
2023/11/10 00:47:50;;;;;;;3.67;1.70;;;;;;;9.09;100.00;98893.47;5060556;28;20065;-73
2023/11/10 00:50:19;;;;;;;5.45;1.80;;;;;;;9.03;100.00;98887.72;5055724;28;20715;-73
2023/11/10 00:52:48;;;;;;;3.72;1.58;;;;;;;9.01;100.00;98892.25;5057234;28;20456;-73
2023/11/10 00:55:17;;;;;;;3.45;1.42;;;;;;;9.04;100.00;98902.63;5066802;28;20063;-76
2023/11/10 00:57:45;;;;;;;3.85;1.73;;;;;;;8.91;100.00;98884.09;5065186;28;20108;-73
2023/11/10 01:00:15;;;;;;;4.05;1.63;;;;;;;8.92;100.00;98895.50;5038353;28;20061;-73
2023/11/10 01:02:44;;;;;;;3.65;1.77;;;;;;;8.86;100.00;98887.94;5078475;28;20109;-75
2023/11/10 01:05:15;;;;;;;4.72;1.80;;;;;;;8.73;100.00;98872.91;5063277;28;20042;-75
2023/11/10 01:07:45;;;;;;;3.55;1.67;;;;;;;8.77;100.00;98887.59;5072922;28;20041;-73
2023/11/10 01:10:13;;;;;;;3.03;1.70;;;;;;;8.84;100.00;98890.69;5034084;28;20041;-75
2023/11/10 01:12:41;;;;;;;3.00;1.63;;;;;;;8.87;100.00;98901.06;5047812;28;20041;-73
2023/11/10 01:15:12;;;;;;;3.88;1.92;;;;;;;8.90;100.00;98894.75;5049775;28;20052;-73
2023/11/10 01:17:40;;;;;;;;;;;;;;;9.03;100.00;98907.06;5037741;28;20071;-74
2023/11/10 01:20:10;;;;;;;3.03;1.63;;;;;;;9.05;100.00;98899.03;5050790;28;19924;-74
2023/11/10 01:22:43;;;;;;;4.07;1.85;;;;;;;9.05;100.00;98899.03;5053897;28;20036;-73
2023/11/10 01:25:13;;;;;;;4.03;1.83;;;;;;;8.91;100.00;98896.44;5050774;28;20076;-73
2023/11/10 01:27:42;;;;;;;3.90;1.40;;;;;;;8.71;100.00;98895.06;5051868;28;20045;-74
2023/11/10 01:30:13;;;;;;;5.03;1.60;;;;;;;8.57;100.00;98903.00;5027264;28;21711;-76
2023/11/10 01:32:43;;;;;;;7.40;1.80;;;;;;;8.52;100.00;98903.25;5051697;28;20098;-73
2023/11/10 01:35:13;;;;;;;3.25;1.20;;;;;;;8.41;100.00;98893.38;5048123;28;20049;-73
2023/11/10 01:37:43;;;;;;;4.55;1.40;;;;;;;8.33;100.00;98879.00;5052627;28;20517;-75
2023/11/10 01:40:14;;;;;;;4.40;1.25;;;;;;;8.20;100.00;98886.75;5048575;28;20875;-74
2023/11/10 01:42:45;;;;;;;3.75;1.00;;;;;;;8.10;100.00;98883.84;5049150;28;20040;-73
2023/11/10 01:45:18;;;;;;;2.42;0.95;;;;;;;7.85;100.00;98833.56;5036706;28;20505;-72
2023/11/10 01:47:48;;;;;;;4.00;1.00;;;;;;;8.02;100.00;98872.94;5075152;28;20128;-74
2023/11/10 01:50:18;;;;;;;3.88;1.10;;;;;;;8.02;100.00;98894.03;5049488;28;20489;-72
2023/11/10 01:52:48;;;;;;;2.30;1.00;;;;;;;7.99;100.00;98891.56;5028165;28;20056;-74
2023/11/10 01:55:18;;;;;;;2.92;1.15;;;;;;;7.94;100.00;98893.63;5049664;28;20045;-73
2023/11/10 01:57:47;;;;;;;3.72;1.30;;;;;;;7.98;100.00;98894.28;5054313;28;20067;-74
2023/11/10 02:00:18;;;;;;;4.53;1.20;;;;;;;7.99;100.00;98896.84;5051015;28;20131;-73
2023/11/10 02:02:47;;;;;;;2.95;1.33;;;;;;;7.99;100.00;98885.44;5049032;28;20048;-72
2023/11/10 02:05:17;;;;;;;3.13;1.00;;;;;;;7.99;100.00;98886.28;5047092;28;20046;-72
2023/11/10 02:07:48;;;;;;;2.55;0.90;;;;;;;7.86;100.00;98889.75;5049432;28;20496;-72
2023/11/10 02:10:17;;;;;;;;;;;;;;;7.72;100.00;98880.88;5050817;28;20053;-72
2023/11/10 02:12:53;;;;;;;2.80;1.00;;;;;;;7.58;100.00;98869.44;5062470;28;19921;-74
2023/11/10 02:15:25;;;;;;;4.38;1.10;;;;;;;7.55;100.00;98872.28;5066709;28;20064;-72
2023/11/10 02:17:53;;;;;;;3.28;0.98;;;;;;;7.54;100.00;98855.63;5054098;28;20053;-73
2023/11/10 02:20:22;;;;;;;2.78;1.10;;;;;;;7.58;100.00;98853.63;5049726;28;20060;-72
2023/11/10 02:22:55;;;;;;;4.05;0.90;;;;;;;7.53;100.00;98843.41;5048956;28;20116;-73
2023/11/10 02:25:25;;;;;;;5.40;1.00;;;;;;;7.55;100.00;98832.78;5053301;28;20084;-73
2023/11/10 02:27:53;;;;;;;2.22;1.13;;;;;;;7.59;100.00;98836.91;5046483;28;20097;-72
2023/11/10 02:30:21;;;;;;;2.20;1.20;;;;;;;7.50;100.00;98819.03;5047398;28;20075;-73
2023/11/10 02:32:50;;;;;;;3.85;1.40;;;;;;;7.50;100.00;98819.88;5044989;28;20071;-73
2023/11/10 02:35:19;;;;;;;3.55;1.42;;;;;;;7.59;100.00;98834.25;5052893;28;20049;-73
2023/11/10 02:37:47;;;;;;;3.67;1.60;;;;;;;7.61;100.00;98830.59;5051221;28;20501;-73
2023/11/10 02:40:18;;;;;;;5.78;1.70;;;;;;;7.62;100.00;98820.91;5054464;28;20049;-73
2023/11/10 02:42:50;;;;;;;3.38;1.83;;;;;;;7.67;100.00;98826.78;5046518;28;20044;-73
2023/11/10 02:45:18;;;;;;;2.83;2.03;;;;;;;7.70;100.00;98829.22;5053588;28;20049;-73
2023/11/10 02:47:48;;;;;;;6.15;2.10;;;;;;;7.68;100.00;98815.28;5054553;28;20896;-73
2023/11/10 02:50:17;;;;;;;4.95;1.92;;;;;;;7.72;100.00;98814.16;5051872;28;20045;-73
2023/11/10 02:52:52;;;;;;;2.47;1.60;;;;;;;7.73;100.00;98818.47;5048151;28;20063;-73
2023/11/10 02:55:22;;;;;;;2.92;1.52;;;;;;;7.77;100.00;98821.78;5054750;28;20072;-73
2023/11/10 02:57:51;;;;;;;4.50;1.80;;;;;;;7.78;100.00;98831.38;5037492;28;20054;-74
2023/11/10 03:00:20;;;;;;;6.38;1.65;;;;;;;7.74;100.00;98825.44;5051328;28;20120;-72
2023/11/10 03:02:48;;;;;;;6.68;1.50;;;;;;;7.61;100.00;98806.91;5043684;28;20041;-72
2023/11/10 03:05:16;;;;;;;6.00;1.58;;;;;;;7.78;100.00;98829.59;5070238;28;20069;-72
2023/11/10 03:07:45;;;;;;;4.15;1.40;;;;;;;7.81;100.00;98823.31;5050919;28;20049;-73
2023/11/10 03:10:14;;;;;;;4.45;1.50;;;;;;;7.80;100.00;98821.59;5048615;28;20057;-74
2023/11/10 03:12:42;;;;;;;2.47;1.00;;;;;;;7.84;100.00;98828.38;5056425;28;20052;-73
2023/11/10 03:15:13;;;;;;;2.80;1.20;;;;;;;7.78;100.00;98821.69;5033294;28;20068;-72
2023/11/10 03:17:44;;;;;;;2.28;1.02;;;;;;;7.88;100.00;98822.81;5051745;28;20044;-74
2023/11/10 03:20:12;;;;;;;2.88;1.00;;;;;;;7.89;100.00;98826.31;5048269;28;20053;-73
2023/11/10 03:22:41;;;;;;;3.15;1.20;;;;;;;7.82;100.00;98815.31;5043733;28;20125;-74
2023/11/10 03:25:10;;;;;;;3.35;0.80;;;;;;;7.83;100.00;98822.28;5048526;28;20225;-74
2023/11/10 03:27:39;;;;;;;4.70;1.20;;;;;;;7.79;100.00;98807.56;5052521;28;20528;-74
2023/11/10 03:30:09;;;;;;;3.25;1.13;;;;;;;7.79;100.00;98818.13;5044653;28;20061;-72
2023/11/10 03:32:39;;;;;;;3.67;0.90;;;;;;;7.79;100.00;98814.63;5041553;28;20068;-71
2023/11/10 03:35:11;;;;;;;2.83;0.95;;;;;;;7.80;100.00;98811.06;5052322;28;20456;-72
2023/11/10 03:37:40;;;;;;;2.15;0.93;;;;;;;7.79;100.00;98809.38;5056472;28;20041;-72
2023/11/10 03:40:10;;;;;;;2.38;0.80;;;;;;;7.78;100.00;98811.16;5057923;28;20056;-72
2023/11/10 03:42:38;;;;;;;2.88;1.00;;;;;;;7.81;100.00;98810.97;5057375;28;20045;-72
2023/11/10 03:45:07;;;;;;;5.00;1.15;;;;;;;7.82;100.00;98823.22;5050123;28;20140;-73
2023/11/10 03:47:35;;;;;;;3.28;0.70;;;;;;;7.75;100.00;98819.25;5054515;28;20063;-74
2023/11/10 03:50:07;;;;;;;2.95;1.05;;;;;;;7.85;100.00;98823.03;5053602;28;20040;-72
2023/11/10 03:52:36;;;;;;;2.45;0.77;;;;;;;7.91;100.00;98817.38;5058556;28;20296;-72
2023/11/10 03:55:05;;;;;;;3.85;1.00;;;;;;;7.91;100.00;98817.38;5065122;28;20049;-73
2023/11/10 03:57:33;;;;;;;2.88;0.77;;;;;;;7.85;100.00;98820.41;5068668;28;20045;-73
2023/11/10 04:00:03;;;;;;;2.00;0.80;;;;;;;7.80;100.00;98809.28;5052415;28;20501;-74
2023/11/10 04:02:32;;;;;;;3.65;0.82;;;;;;;7.90;100.00;98818.31;5082981;28;20159;-73
2023/11/10 04:04:59;;;;;;;4.45;1.10;;;;;;;7.90;100.00;98810.41;5035339;28;20092;-73
2023/11/10 04:07:32;;;;;;;3.47;0.75;;;;;;;7.91;100.00;98801.56;5070028;28;20037;-73
2023/11/10 04:10:00;;;;;;;4.75;1.13;;;;;;;7.87;100.00;98807.13;5029553;28;20088;-73
2023/11/10 04:12:28;;;;;;;1.88;0.70;;;;;;;7.82;100.00;98794.22;5028315;28;20033;-73
2023/11/10 04:14:58;;;;;;;5.40;0.90;;;;;;;7.87;100.00;98805.31;5051542;28;20052;-73
2023/11/10 04:17:26;;;;;;;2.35;0.82;;;;;;;7.81;100.00;98805.69;5055929;28;20060;-73
2023/11/10 04:19:54;;;;;;;1.52;0.60;;;;;;;7.75;100.00;98798.16;5054010;28;20037;-73
2023/11/10 04:22:22;;;;;;;4.50;1.20;;;;;;;7.87;100.00;98807.94;5045912;28;20046;-73
2023/11/10 04:24:54;;;;;;;3.45;0.80;;;;;;;7.89;100.00;98799.94;5048845;28;20102;-73
2023/11/10 04:27:23;;;;;;;4.18;0.88;;;;;;;7.80;100.00;98801.38;5055977;28;20056;-73
2023/11/10 04:29:52;;;;;;;5.05;0.75;;;;;;;7.80;100.00;98809.28;5035938;28;20135;-73
2023/11/10 04:32:20;;;;;;;5.45;1.00;;;;;;;7.80;100.00;98809.28;5044422;28;20057;-72
2023/11/10 04:34:48;;;;;;;2.03;0.73;;;;;;;7.78;100.00;98819.06;5031539;28;20095;-73
2023/11/10 04:37:20;;;;;;;3.00;0.95;;;;;;;7.65;100.00;98807.56;5051886;28;20092;-73
2023/11/10 04:39:52;;;;;;;4.28;1.00;;;;;;;7.69;100.00;98820.47;5046893;28;20045;-73
2023/11/10 04:42:24;;;;;;;4.13;0.80;;;;;;;7.66;100.00;98819.81;5045508;28;20059;-72
2023/11/10 04:44:53;;;;;;;3.27;0.70;;;;;;;7.62;100.00;98810.38;5050271;28;20048;-72
2023/11/10 04:47:21;;;;;;;4.22;0.88;;;;;;;7.65;100.00;98812.84;5051719;28;20041;-73
2023/11/10 04:49:54;;;;;;;1.35;0.60;;;;;;;7.59;100.00;98808.78;5052752;28;20044;-73
2023/11/10 04:52:22;;;;;;;4.63;1.10;;;;;;;7.52;100.00;98807.47;5029288;28;20052;-73
2023/11/10 04:54:51;;;;;;;5.00;1.00;;;;;;;7.59;100.00;98815.81;5052850;28;20044;-73
2023/11/10 04:57:20;;;;;;;2.58;0.70;;;;;;;7.58;100.00;98814.97;5047683;28;20048;-74
2023/11/10 04:59:53;;;;;;;5.70;1.55;;;;;;;7.59;100.00;98821.09;5052739;28;20049;-73
2023/11/10 05:02:22;;;;;;;3.67;0.90;;;;;;;7.59;100.00;98818.47;5046352;28;20104;-74
2023/11/10 05:04:51;;;;;;;3.50;0.88;;;;;;;7.49;100.00;98810.28;5049313;28;20494;-73
2023/11/10 05:07:20;;;;;;;2.60;1.02;;;;;;;7.46;100.00;98817.50;5054118;28;20068;-73
2023/11/10 05:09:51;;;;;;;3.03;0.63;;;;;;;7.37;100.00;98801.31;5031675;28;20060;-74
2023/11/10 05:12:19;;;;;;;1.67;0.52;;;;;;;7.47;100.00;98814.78;5047095;28;20473;-73
2023/11/10 05:14:50;;;;;;;3.13;1.00;;;;;;;7.44;100.00;98822.00;5052049;28;20133;-74
2023/11/10 05:17:18;;;;;;;2.78;0.75;;;;;;;7.39;100.00;98812.63;5053822;28;20092;-74
2023/11/10 05:19:46;;;;;;;4.43;1.42;;;;;;;7.38;100.00;98813.56;5049409;28;20446;-74
2023/11/10 05:22:14;;;;;;;2.88;0.75;;;;;;;7.38;100.00;98817.97;5029612;28;20048;-74
2023/11/10 05:24:43;;;;;;;1.60;0.63;;;;;;;7.45;100.00;98821.06;5048981;28;20048;-75
2023/11/10 05:27:12;;;;;;;3.83;0.85;;;;;;;7.36;100.00;98833.84;5052706;28;20420;-72
2023/11/10 05:29:40;;;;;;;3.50;0.65;;;;;;;7.30;100.00;98830.72;5052813;28;20121;-73
2023/11/10 05:32:11;;;;;;;2.17;0.60;;;;;;;7.27;100.00;98826.47;5063162;28;20079;-72
2023/11/10 05:34:39;;;;;;;3.08;0.60;;;;;;;7.21;100.00;98823.38;5043932;28;20041;-73
2023/11/10 05:37:11;;;;;;;2.60;0.60;;;;;;;7.24;100.00;98833.72;5052180;28;20654;-73
2023/11/10 05:39:38;;;;;;;3.28;0.50;;;;;;;7.34;100.00;98832.25;5047726;28;20048;-72
2023/11/10 05:42:09;;;;;;;2.35;0.70;;;;;;;7.26;100.00;98822.16;5044782;28;20045;-74
2023/11/10 05:44:37;;;;;;;2.28;0.50;;;;;;;7.42;100.00;98837.91;5048886;28;20033;-73
2023/11/10 05:47:05;;;;;;;4.25;0.60;;;;;;;7.40;100.00;98843.25;5044376;28;20048;-73
2023/11/10 05:49:35;;;;;;;2.47;0.50;;;;;;;7.35;100.00;98836.56;5047531;28;20059;-74
2023/11/10 05:52:04;;;;;;;4.20;0.70;;;;;;;7.32;100.00;98840.22;5063450;28;20037;-74
2023/11/10 05:54:33;;;;;;;3.17;0.90;;;;;;;7.27;100.00;98841.44;5042723;28;20049;-75
2023/11/10 05:57:02;;;;;;;2.45;0.80;;;;;;;7.31;100.00;98846.44;5044879;28;20488;-74
2023/11/10 05:59:30;;;;;;;3.22;0.88;;;;;;;7.28;100.00;98849.25;5067977;28;20425;-75
2023/11/10 06:01:58;;;;;;;2.83;0.65;;;;;;;7.28;100.00;98840.50;5049094;28;20580;-73
2023/11/10 06:04:27;;;;;;;3.97;0.90;;;;;;;7.39;100.00;98853.91;5043196;28;20377;-73
2023/11/10 06:07:06;;;;;;;5.13;1.20;;;;;;;7.48;100.00;98853.34;5047087;28;20064;-73
2023/11/10 06:09:35;;;;;;;4.82;0.80;;;;;;;7.43;100.00;98838.75;5047196;28;20041;-73
2023/11/10 06:12:04;;;;;;;5.05;0.88;;;;;;;7.44;100.00;98846.56;5046879;28;20045;-73
2023/11/10 06:14:33;;;;;;;2.97;1.00;;;;;;;7.44;100.00;98850.97;5046964;28;20053;-74
2023/11/10 06:17:00;;;;;;;4.60;0.95;;;;;;;7.30;100.00;98831.56;5058979;28;20041;-73
2023/11/10 06:19:32;;;;;;;4.28;0.90;;;;;;;7.31;100.00;98849.06;5064576;28;20041;-73
2023/11/10 06:22:01;;;;;;;2.28;0.93;;;;;;;7.30;100.00;98846.53;5049931;28;20063;-75
2023/11/10 06:24:32;;;;;;;3.08;1.00;;;;;;;7.17;100.00;98833.22;5038862;28;20045;-73
2023/11/10 06:27:01;;;;;;;3.60;1.10;;;;;;;7.24;100.00;98858.25;5066892;28;20105;-75
2023/11/10 06:29:30;;;;;;;5.78;1.20;;;;;;;7.14;100.00;98854.47;5053036;28;20598;-74
2023/11/10 06:32:01;;;;;;;2.67;0.88;;;;;;;7.15;100.00;98861.41;5064444;28;20049;-73
2023/11/10 06:34:33;;;;;;;3.83;0.80;;;;;;;7.12;100.00;98860.75;5040845;28;20107;-74
2023/11/10 06:37:03;;;;;;;3.53;1.15;;;;;;;7.03;100.00;98855.09;5032648;28;20094;-74
2023/11/10 06:39:33;;;;;;;6.10;1.27;;;;;;;7.04;100.00;98863.81;5066831;28;20068;-73
2023/11/10 06:42:04;;;;;;;3.47;1.40;;;;;;;6.97;100.00;98867.72;5050291;28;20041;-73
2023/11/10 06:44:37;;;;;;;3.78;1.13;;;;;;;6.94;100.00;98873.16;5042474;28;20073;-73
2023/11/10 06:47:07;;;;;;;4.22;1.00;;;;;;;6.94;100.00;98888.94;5056624;28;20105;-73
2023/11/10 06:49:35;;;;;;;4.55;1.30;;;;;;;6.91;100.00;98890.00;5058081;28;20041;-74
2023/11/10 06:52:03;;;;;;;7.03;1.10;;;;;;;6.94;100.00;98894.22;5057195;28;20094;-73
2023/11/10 06:54:33;;;;;;;2.38;0.95;;;;;;;6.87;100.00;98896.34;5048405;28;20045;-74
2023/11/10 06:57:02;;;;;;;4.22;0.90;;;;;;;6.82;100.00;98895.75;5041633;28;20045;-74
2023/11/10 06:59:32;;;;;;;5.38;1.15;;;;;;;6.81;100.00;98885.31;5027830;28;20520;-73
2023/11/10 07:02:02;;;;;;;4.30;1.02;;;;;;;6.86;100.00;98901.69;5053552;28;20040;-74
2023/11/10 07:04:32;;;;;;;4.70;0.70;;;;;;;6.89;100.00;98901.53;5040310;28;20049;-74
2023/11/10 07:07:02;;;;;;;4.22;1.40;;;;;;;6.93;100.00;98906.50;5052512;28;20044;-73
2023/11/10 07:09:31;;;;;;;1.92;0.70;;;;;;;6.90;100.00;98903.22;5050976;28;20045;-72
2023/11/10 07:12:03;;;;;;;4.25;0.80;;;;;;;6.82;100.00;98894.91;5032839;28;20041;-72
2023/11/10 07:14:32;;;;;;;7.25;1.10;;;;;;;6.92;100.00;98901.38;5044356;28;20048;-72
2023/11/10 07:19:55;;;;;;;4.30;1.00;;;;;;;7.12;100.00;98906.34;5052774;28;20513;-73
2023/11/10 07:22:23;;;;;;;6.75;1.45;;;;;;;7.15;100.00;98914.06;5051405;28;20056;-73
2023/11/10 07:24:51;;;;;;;2.50;0.85;;;;;;;7.15;100.00;98913.22;5023880;28;20041;-74
2023/11/10 07:27:21;;;;;;;3.65;0.98;;;;;;;7.12;100.00;98908.13;5052924;28;20044;-72
2023/11/10 07:29:49;;;;;;;4.10;1.10;;;;;;;7.04;100.00;98914.69;5061271;28;20087;-73
2023/11/10 07:32:19;;;;;;;3.70;1.00;;;;;;;7.16;100.00;98928.94;5058623;28;20041;-72
2023/11/10 07:34:48;;;;;;;4.57;1.03;;;;;;;7.26;100.00;98924.84;5043843;28;20131;-73
2023/11/10 07:37:16;;;;;;;6.20;1.00;;;;;;;7.28;100.00;98930.88;5055019;28;20862;-73
2023/11/10 07:39:45;;;;;;;4.95;0.93;;;;;;;7.34;100.00;98930.53;5044841;28;20041;-74
2023/11/10 07:42:17;;;;;;;3.83;1.03;;;;;;;7.39;100.00;98932.91;5052502;28;20098;-73
2023/11/10 07:44:47;;;;;;;3.97;1.20;;;;;;;7.37;100.00;98935.63;5041042;28;20041;-73
2023/11/10 07:47:16;;;;;;;5.63;1.08;;;;;;;7.29;100.00;98935.19;5047470;28;20056;-72
2023/11/10 07:49:44;;;;;;;6.00;1.30;;;;;;;7.28;100.00;98951.06;5066307;28;20067;-73
2023/11/10 07:52:12;;;;;;;2.78;0.98;;;;;;;7.29;100.00;98943.09;5035447;28;20068;-72
2023/11/10 07:54:43;;;;;;;3.50;1.08;;;;;;;7.38;100.00;98952.28;5042265;28;20045;-74
2023/11/10 07:57:24;;;;;;;3.63;0.88;;;;;;;7.46;100.00;98943.91;5047909;28;20049;-72
2023/11/10 07:59:54;;;;;;;4.65;1.25;;;;;;;7.50;100.00;98933.13;5049246;28;20045;-72
2023/11/10 08:02:22;;;;;;;3.47;1.10;;;;;;;7.57;100.00;98936.25;5054374;28;20033;-73
2023/11/10 08:04:50;;;;;;;4.35;0.90;;;;;;;7.56;100.00;98931.91;5050109;28;20041;-74
2023/11/10 08:07:19;;;;;;;3.65;0.80;;;;;;;7.61;100.00;98948.31;5049249;28;20072;-74
2023/11/10 08:09:51;;;;;;;2.13;0.73;;;;;;;7.61;100.00;98937.75;5063483;28;20135;-73
2023/11/10 08:12:19;;;;;;;2.53;0.60;;;;;;;7.57;100.00;98925.69;5055181;28;20076;-73
2023/11/10 08:14:50;;;;;;;2.35;0.77;;;;;;;7.80;100.00;98941.03;5054953;28;20048;-73
2023/11/10 08:17:21;;;;;;;3.42;0.70;;;;;;;7.80;100.00;98933.13;5065644;28;20472;-72
2023/11/10 08:19:49;;;;;;;1.83;0.80;;;;;;;7.90;100.00;98938.69;5065859;28;20132;-72
2023/11/10 08:22:17;;;;;;;6.35;1.02;;;;;;;7.93;100.00;98944.63;5045489;28;20045;-74
2023/11/10 08:24:44;;;;;;;1.95;0.73;;;;;;;7.96;100.00;98949.72;5053872;28;20178;-73
2023/11/10 08:27:12;;;;;;;1.98;0.70;;;;;;;7.94;100.00;98935.78;5062509;28;20073;-74
2023/11/10 08:29:40;;;;;;;2.13;0.65;;;;;;;7.99;100.00;98944.28;5073448;28;20052;-72
2023/11/10 08:32:09;;;;;;;3.60;0.80;;;;;;;8.01;100.00;98942.41;5074013;28;20049;-74
2023/11/10 08:34:40;;;;;;;6.35;0.70;;;;;;;8.13;100.00;98945.25;5054558;28;20072;-72
2023/11/10 08:37:09;;;;;;;3.97;0.95;;;;;;;8.14;100.00;98942.53;5059895;28;20041;-72
2023/11/10 08:39:37;;;;;;;2.13;0.60;;;;;;;8.18;100.00;98951.09;5064124;28;20045;-74
2023/11/10 08:42:08;;;;;;;1.73;0.88;;;;;;;8.13;100.00;98940.81;5064687;28;20049;-72
2023/11/10 08:44:37;;;;;;;4.30;1.45;;;;;;;8.27;100.00;98958.44;5053211;28;20056;-71
2023/11/10 08:47:05;;;;;;;4.68;0.88;;;;;;;8.33;100.00;98964.25;5074795;28;20123;-72
2023/11/10 08:49:36;;;;;;;4.22;0.80;;;;;;;8.42;100.00;98945.22;5073215;28;20053;-71
2023/11/10 08:52:07;;;;;;;1.70;0.68;;;;;;;8.54;100.00;98961.22;5072570;28;20061;-73
2023/11/10 08:54:35;;;;;;;;;;;;;;;8.59;100.00;98959.16;5049475;28;20052;-72
2023/11/10 08:57:05;;;;;;;6.45;0.75;;;;;;;8.74;100.00;98959.06;5057291;28;19921;-73
2023/11/10 08:59:36;;;;;;;2.85;0.70;;;;;;;8.84;100.00;98956.69;5061067;28;20397;-73
2023/11/10 09:02:05;;;;;;;1.63;0.70;;;;;;;8.86;100.00;98962.72;5061659;28;20044;-71
2023/11/10 09:04:34;;;;;;;3.20;0.50;;;;;;;8.95;100.00;98956.88;5052364;28;20057;-72
2023/11/10 09:07:02;;;;;;;1.45;0.93;;;;;;;9.10;100.00;98965.63;5067445;28;20076;-73
2023/11/10 09:09:39;;;;;;;2.22;0.77;;;;;;;9.12;100.00;98963.72;5060542;28;20045;-72
2023/11/10 09:12:08;;;;;;;4.28;0.80;;;;;;;9.20;100.00;98961.44;5069572;28;20494;-74
2023/11/10 09:14:37;;;;;;;3.00;0.82;;;;;;;9.23;100.00;98961.25;5064402;28;20059;-74
2023/11/10 09:17:07;;;;;;;2.58;0.50;;;;;;;9.15;100.00;98958.22;5057493;28;20036;-73
2023/11/10 09:19:37;;;;;;;2.10;0.60;;;;;;;9.19;100.00;98953.59;5056636;28;20068;-75
2023/11/10 09:22:06;;;;;;;5.55;0.80;;;;;;;9.18;100.00;98962.47;5037395;28;20135;-74
2023/11/10 09:24:36;;;;;;;2.05;0.65;;;;;;;9.22;100.00;98964.81;5049171;28;20065;-73
2023/11/10 09:27:05;;;;;;;2.78;0.68;;;;;;;9.27;100.00;98968.03;5056021;28;20688;-73
2023/11/10 09:29:36;;;;;;;3.92;0.90;;;;;;;9.19;100.00;98954.44;5057266;28;20123;-72
2023/11/10 09:32:10;;;;;;;4.60;0.80;;;;;;;9.11;100.00;98968.16;5059949;28;20172;-73
2023/11/10 09:34:39;;;;;;;3.88;1.10;;;;;;;9.11;100.00;98962.88;5044606;28;20044;-73
2023/11/10 09:37:09;;;;;;;4.40;0.52;;;;;;;9.41;100.00;98965.34;5048808;28;20041;-72
2023/11/10 09:39:38;;;;;;;3.30;0.98;;;;;;;9.63;100.00;98964.75;5033878;28;20045;-72
2023/11/10 09:42:10;;;;;;;3.30;0.60;;;;;;;9.72;100.00;98960.69;5048573;28;20048;-72
2023/11/10 09:44:40;;;;;;;3.03;0.88;;;;;;;9.67;100.00;98955.69;5047053;28;20158;-73
2023/11/10 09:47:09;;;;;;;2.53;0.80;;;;;;;9.52;100.00;98951.41;5048915;28;20049;-72
2023/11/10 09:49:39;;;;;;;2.53;1.05;;;;;;;9.21;100.00;98930.59;5049018;28;20072;-72
2023/11/10 09:52:13;;;;;;;3.20;0.70;;;;;;;9.18;100.00;98952.75;5052705;28;20056;-72
2023/11/10 09:54:45;;;;;;;2.47;0.82;;;;;;;9.16;100.00;98946.72;5043589;28;20575;-73
2023/11/10 09:57:14;;;;;;;3.15;0.65;;;;;;;9.18;100.00;98933.41;5042801;28;20136;-73
2023/11/10 09:59:43;;;;;;;2.25;0.90;;;;;;;9.28;100.00;98956.50;5046808;28;20056;-73
2023/11/10 10:02:15;;;;;;;1.17;0.60;;;;;;;9.11;100.00;98952.31;5034928;28;20136;-73
2023/11/10 10:04:45;;;;;;;4.00;0.85;;;;;;;8.96;100.00;98963.00;5040892;28;20057;-72
2023/11/10 10:07:15;;;;;;;3.35;0.90;;;;;;;8.96;100.00;98945.38;5045656;28;20041;-74
2023/11/10 10:09:46;;;;;;;5.85;1.00;;;;;;;9.02;100.00;98938.81;5046412;28;20032;-73
2023/11/10 10:12:15;;;;;;;3.55;1.10;;;;;;;9.22;100.00;98948.97;5059905;28;20122;-73
2023/11/10 10:14:54;;;;;;;3.67;0.60;;;;;;;9.33;100.00;98943.00;5043608;28;20041;-74
2023/11/10 10:17:33;;;;;;;5.75;1.02;;;;;;;9.34;100.00;98945.53;5049846;28;20040;-73
2023/11/10 10:20:13;;;;;;;4.50;0.85;;;;;;;9.27;100.00;98943.41;5025572;28;20069;-74
2023/11/10 10:22:45;;;;;;;1.10;0.57;;;;;;;9.09;100.00;98940.16;5041901;28;20068;-73
2023/11/10 10:25:16;;;;;;;2.47;0.85;;;;;;;9.03;100.00;98943.16;5040243;28;20057;-72
2023/11/10 10:27:46;;;;;;;3.85;0.70;;;;;;;8.97;100.00;98949.69;5046194;28;20044;-73
2023/11/10 10:30:19;;;;;;;2.55;0.70;;;;;;;9.04;100.00;98936.94;5051551;28;20091;-73
2023/11/10 10:32:50;;;;;;;4.38;0.90;;;;;;;9.13;100.00;98946.91;5061868;28;20053;-73
2023/11/10 10:35:18;;;;;;;2.35;0.80;;;;;;;9.18;100.00;98947.47;5009382;28;20171;-75
2023/11/10 10:37:47;;;;;;;4.03;1.00;;;;;;;9.26;100.00;98937.28;5028449;28;20052;-74
2023/11/10 10:40:18;;;;;;;2.67;0.60;;;;;;;9.34;100.00;98942.88;5049577;28;20044;-73
2023/11/10 10:42:48;;;;;;;4.25;0.80;;;;;;;9.25;100.00;98932.94;5051523;28;20426;-74
2023/11/10 10:45:16;;;;;;;1.95;0.63;;;;;;;9.34;100.00;98929.69;5038422;28;20095;-76
2023/11/10 10:47:47;;;;;;;1.77;0.73;;;;;;;9.21;100.00;98914.72;5050723;28;20048;-75
2023/11/10 10:50:17;;;;;;;5.35;0.88;;;;;;;9.14;100.00;98940.69;5051561;28;20048;-73
2023/11/10 10:52:49;;;;;;;1.83;0.60;;;;;;;9.20;100.00;98935.00;5047379;28;20581;-74
2023/11/10 10:55:20;;;;;;;3.00;0.88;;;;;;;9.22;100.00;98929.63;5044089;28;20056;-74
2023/11/10 10:57:50;;;;;;;;;;;;;;;9.30;100.00;98940.53;5051182;28;20509;-74
2023/11/10 11:00:20;;;;;;;2.83;0.50;;;;;;;9.15;100.00;98934.47;5052806;28;19928;-75
2023/11/10 11:02:56;;;;;;;2.65;1.00;;;;;;;9.02;100.00;98944.09;5047987;28;20136;-76
2023/11/10 11:05:39;;;;;;;2.70;0.80;;;;;;;8.99;100.00;98910.81;5046703;28;20041;-74
2023/11/10 11:08:20;;;;;;;2.90;0.70;;;;;;;9.02;100.00;98928.25;5053009;28;20469;-75
2023/11/10 11:11:09;;;;;;;1.05;0.50;;;;;;;8.90;100.00;98936.97;5050514;28;20059;-75
2023/11/10 11:13:54;;;;;;;2.10;0.95;;;;;;;8.83;100.00;98918.03;5066897;28;20052;-76
2023/11/10 11:16:46;;;;;;;1.63;0.80;;;;;;;8.84;100.00;98919.72;5050410;28;20044;-74
2023/11/10 11:19:23;;;;;;;2.47;0.90;;;;;;;8.90;100.00;98926.41;5052053;28;20053;-76
2023/11/10 11:21:53;;;;;;;1.77;0.75;;;;;;;8.95;100.00;98913.78;5035179;28;20071;-75
2023/11/10 11:24:24;;;;;;;3.20;0.80;;;;;;;9.04;100.00;98916.66;5055683;28;20052;-75
2023/11/10 11:27:00;;;;;;;4.07;1.33;;;;;;;9.05;100.00;98909.59;5045435;28;20052;-75
2023/11/10 11:29:38;;;;;;;8.13;3.00;;;;;;;9.23;100.00;98905.78;5053053;28;20044;-74
2023/11/10 11:32:12;;;;;;;2.50;0.80;;;;;;;9.36;100.00;98908.44;5047876;28;20478;-74
2023/11/10 11:34:52;;;;;;;3.15;0.80;;;;;;;9.49;100.00;98910.19;5048215;28;20052;-76
2023/11/10 11:37:20;;;;;;;2.85;0.90;;;;;;;9.60;100.00;98903.34;5060204;28;20055;-75
2023/11/10 11:39:53;;;;;;;2.75;1.25;;;;;;;9.75;100.00;98899.69;5052059;28;20045;-75
2023/11/10 11:42:23;;;;;;;3.58;1.13;;;;;;;9.87;100.00;98898.00;5048964;28;20666;-75
2023/11/10 11:44:57;;;;;;;6.05;1.40;;;;;;;9.76;100.00;98896.06;5046799;28;20048;-74
2023/11/10 11:47:33;;;;;;;3.70;0.80;;;;;;;9.63;100.00;98885.47;5044576;28;20246;-74
2023/11/10 11:50:01;;;;;;;2.67;0.98;;;;;;;9.23;100.00;98891.72;5047488;28;20560;-75